Airport ICAO


07:29 UTC

8°C

No significant clouds


An affordable passengers' Moving Map for your aircraft. Made for the iPad and the iPhone
More information here

LFOB Tille


Beauvais FRANCE   VFR


METAR LFOB 200700Z AUTO 00000KT 6000 NSC 08/08 Q1022 NOSIG 0h29min

TAF LFOB 200500Z 2006/2106 VRB02KT 3000 BR NSC TEMPO 2006/2007 0500 BCFG VV/// BECMG 2007/2009 9999 NSW BECMG 2009/2011 21007KT 2h29min





NOTAMS

OPEN